This is the latest recevied weather packets stored in our database for station/object DB0ASF-4. If no packets are shown the sender has not sent any weather packets the latest 10 day(s).
| Time | Temp. | Humidity | Pressure | Rain* | Wind** | Luminosity | Snow |
|---|---|---|---|---|---|---|---|
| 1778076558 | 22.22° C | 50% | 1010.2 hPa | 0 mm | - | - | - |
| 1778075958 | 23.33° C | 48% | 1010.2 hPa | 0 mm | - | - | - |
| 1778075358 | 24.44° C | 47% | 1010.2 hPa | 0 mm | - | - | - |
| 1778074758 | 26.11° C | 45% | 1010.2 hPa | 0 mm | - | - | - |
| 1778074158 | 25° C | 46% | 1010.2 hPa | 0 mm | - | - | - |
| 1778073558 | 23.89° C | 47% | 1010.2 hPa | 0 mm | - | - | - |
| 1778072958 | 24.44° C | 48% | 1010.2 hPa | 0 mm | - | - | - |
| 1778072358 | 25° C | 48% | 1010.2 hPa | 0 mm | - | - | - |
| 1778071758 | 23.89° C | 52% | 1010.2 hPa | 0 mm | - | - | - |
| 1778071158 | 22.22° C | 54% | 1010.5 hPa | 0 mm | - | - | - |
| 1778070558 | 21.67° C | 56% | 1010.5 hPa | 0 mm | - | - | - |
| 1778069958 | 21.11° C | 58% | 1010.2 hPa | 0 mm | - | - | - |
| 1778069358 | 20.56° C | 56% | 1010.7 hPa | 0 mm | - | - | - |
| 1778068758 | 21.67° C | 56% | 1010.5 hPa | 0 mm | - | - | - |
| 1778068158 | 21.67° C | 56% | 1010.5 hPa | 0 mm | - | - | - |
| 1778067558 | 21.67° C | 59% | 1010.4 hPa | 0 mm | - | - | - |
| 1778066958 | 21.11° C | 59% | 1010.5 hPa | 0 mm | - | - | - |
| 1778066358 | 21.11° C | 60% | 1010.5 hPa | 0 mm | - | - | - |
| 1778065758 | 20.56° C | 59% | 1010.5 hPa | 0 mm | - | - | - |
| 1778065158 | 21.11° C | 60% | 1010.5 hPa | 0 mm | - | - | - |
| 1778064558 | 21.11° C | 60% | 1010.5 hPa | 0 mm | - | - | - |
| 1778063958 | 21.11° C | 62% | 1010.7 hPa | 0 mm | - | - | - |
| 1778063358 | 20° C | 65% | 1010.7 hPa | 0 mm | - | - | - |
| 1778062758 | 19.44° C | 66% | 1010.7 hPa | 0 mm | - | - | - |
| 1778062158 | 18.89° C | 69% | 1010.7 hPa | 0 mm | - | - | - |
* Rain latest hour (hover to see other rain measurements)
** Current wind speed in m/s (hover to see current wind gust speed)